Silver Bay, MN

11:37 AM CDT on April 19, 2018 (GMT -0500)
Silver Bay Municipal

Weather History for KBFW - August, 2013

Change the Weather History Date:

Friday, August 2, 2013

  Actual Average Record
Temperature  
Mean Temperature 58 °F -  
Max Temperature 71 °F 72 °F 89 °F (1997)
Min Temperature 44 °F 46 °F -54 °F (2001)
Degree Days  
Heating Degree Days 8    
Growing Degree Days 8 (Base 50)    
Moisture  
Dew Point 46 °F    
Average Humidity 63    
Maximum Humidity 94    
Minimum Humidity 31    
Precipitation  
Precipitation 0.01 in - - ()
Sea Level Pressure  
Sea Level Pressure 29.89 in    
Wind  
Wind Speed 1 mph (NNW)    
Max Wind Speed 10 mph    
Max Gust Speed 18 mph    
Visibility 10 miles    
Events Rain    
Averages and records for this station are not official NWS values.
T = Trace of Precipitation, MM = Missing Value Source: NWS Daily Summary

Daily Weather History Graph

Daily Weather History Graph

Search for Another Location

Airport or City:

Astronomy

Aug. 02, 2013 Rise Set
Actual Time 5:45 AM CDT 8:37 PM CDT
Civil Twilight 5:10 AM CDT 9:12 PM CDT
Nautical Twilight 4:24 AM CDT 9:57 PM CDT
Astronomical Twilight 3:30 AM CDT 10:51 PM CDT
Moon 2:04 AM CDT (8/2) 5:37 PM CDT (8/2)
Length of Visible Light 16h 02m
Length of Day
14h 51m
Waning Crescent, 15% of the Moon is Illuminated
Aug 2
Waning Crescent
Aug 6
New
Aug 14
First Quarter
Aug 20
Full
Aug 28
Last Quarter

Hourly Weather History & Observations

Time (CDT) Temp. Dew Point Humidity Pressure Visibility Wind Dir Wind Speed Gust Speed Precip Events Conditions
12:13 AM 55.4 °F 51.8 °F 88% 29.85 in 10.0 mi Calm Calm - 0.12 in Rain Light Rain
12:33 AM 53.6 °F 51.8 °F 94% 29.84 in 10.0 mi Calm Calm - 0.12 in   Scattered Clouds
12:53 AM 53.6 °F 50.0 °F 88% 29.83 in 10.0 mi Calm Calm - N/A   Clear
1:13 AM 53.6 °F 50.0 °F 88% 29.83 in 10.0 mi Calm Calm - N/A   Clear
1:33 AM 51.8 °F 48.2 °F 88% 29.83 in 10.0 mi Calm Calm - N/A   Clear
1:53 AM 51.8 °F 48.2 °F 88% 29.82 in 0.8 mi Calm Calm - N/A   Mist
2:13 AM 51.8 °F 48.2 °F 88% 29.82 in 10.0 mi Calm Calm - N/A   Clear
2:33 AM 50.0 °F 46.4 °F 87% 29.82 in 7.0 mi Calm Calm - N/A   Clear
2:53 AM 48.2 °F 46.4 °F 93% 29.81 in 1.2 mi Calm Calm - N/A   Mist
3:13 AM 48.2 °F 44.6 °F 87% 29.81 in 0.8 mi Calm Calm - 0.01 in   Mist
3:33 AM 51.8 °F 48.2 °F 88% 29.81 in 10.0 mi Calm Calm - 0.01 in   Clear
3:53 AM 44.6 °F 42.8 °F 93% 29.81 in 1.0 mi Calm Calm - N/A   Mist
4:13 AM 46.4 °F 44.6 °F 93% 29.82 in 10.0 mi Calm Calm - N/A   Clear
4:33 AM 48.2 °F 44.6 °F 87% 29.82 in 10.0 mi Calm Calm - N/A   Clear
4:53 AM 51.8 °F 48.2 °F 88% 29.83 in 10.0 mi Calm Calm - N/A   Clear
5:13 AM 51.8 °F 46.4 °F 82% 29.84 in 10.0 mi Calm Calm - N/A   Clear
5:33 AM 51.8 °F 46.4 °F 82% 29.84 in 10.0 mi Calm Calm - N/A   Clear
5:53 AM 51.8 °F 46.4 °F 82% 29.84 in 10.0 mi NW 5.8 mph - N/A   Clear
6:13 AM 51.8 °F 46.4 °F 82% 29.85 in 10.0 mi NW 3.5 mph - N/A   Clear
6:34 AM 51.8 °F 48.2 °F 88% 29.85 in 10.0 mi WNW 3.5 mph - N/A   Clear
6:53 AM 53.6 °F 48.2 °F 82% 29.85 in 10.0 mi Calm Calm - N/A   Clear
7:13 AM 55.4 °F 48.2 °F 77% 29.86 in 10.0 mi NNW 3.5 mph - N/A   Clear
7:33 AM 55.4 °F 50.0 °F 82% 29.87 in 10.0 mi Calm Calm - N/A   Clear
7:53 AM 57.2 °F 51.8 °F 82% 29.87 in 10.0 mi Calm Calm - N/A   Clear
8:13 AM 59.0 °F 51.8 °F 77% 29.87 in 10.0 mi NNW 4.6 mph - N/A   Clear
8:33 AM 60.8 °F 51.8 °F 72% 29.87 in 10.0 mi NNW 3.5 mph - N/A   Clear
8:53 AM 62.6 °F 51.8 °F 68% 29.86 in 10.0 mi NNW 3.5 mph - N/A   Clear
9:13 AM 62.6 °F 51.8 °F 68% 29.86 in 10.0 mi Calm Calm - N/A   Clear
9:33 AM 64.4 °F 51.8 °F 64% 29.86 in 10.0 mi Calm Calm - N/A   Clear
9:53 AM 64.4 °F 50.0 °F 59% 29.86 in 10.0 mi Calm Calm - N/A   Clear
10:13 AM 66.2 °F 48.2 °F 52% 29.87 in 10.0 mi Calm Calm - N/A   Clear
10:33 AM 66.2 °F 46.4 °F 49% 29.87 in 10.0 mi Calm Calm - N/A   Clear
10:53 AM 66.2 °F 46.4 °F 49% 29.87 in 10.0 mi NW 6.9 mph - N/A   Clear
11:13 AM 68.0 °F 46.4 °F 46% 29.87 in 10.0 mi North 6.9 mph - N/A   Clear
11:33 AM 66.2 °F 46.4 °F 49% - 10.0 mi North 10.4 mph - N/A   Clear
11:53 AM 69.8 °F 44.6 °F 40% 29.88 in 10.0 mi NNW 5.8 mph - N/A   Clear
12:13 PM 68.0 °F 44.6 °F 43% 29.88 in 10.0 mi NW 9.2 mph - N/A   Clear
12:33 PM 68.0 °F 44.6 °F 43% 29.88 in 10.0 mi NNW 5.8 mph 18.4 mph N/A   Clear
12:53 PM 68.0 °F 42.8 °F 40% 29.89 in 10.0 mi NNW 9.2 mph 16.1 mph N/A   Clear
1:13 PM 69.8 °F 42.8 °F 38% 29.88 in 10.0 mi NNW 9.2 mph 17.3 mph N/A   Clear
1:33 PM 69.8 °F 44.6 °F 40% 29.88 in 10.0 mi WNW 4.6 mph - N/A   Clear
1:53 PM 69.8 °F 42.8 °F 38% 29.89 in 10.0 mi North 9.2 mph - N/A   Clear
2:13 PM 69.8 °F 42.8 °F 38% 29.89 in 10.0 mi NW 4.6 mph - N/A   Clear
2:34 PM 69.8 °F 42.8 °F 38% 29.90 in 10.0 mi Calm Calm - N/A   Clear
2:53 PM 69.8 °F 42.8 °F 38% 29.90 in 10.0 mi NW 5.8 mph - N/A   Clear
3:13 PM 68.0 °F 42.8 °F 40% 29.90 in 10.0 mi Calm Calm - N/A   Scattered Clouds
3:33 PM 68.0 °F 41.0 °F 37% 29.91 in 10.0 mi NNW 4.6 mph - N/A   Scattered Clouds
3:53 PM 69.8 °F 41.0 °F 35% 29.90 in 10.0 mi NNW 8.1 mph - N/A   Scattered Clouds
4:13 PM 68.0 °F 41.0 °F 37% 29.90 in 10.0 mi Calm Calm - N/A   Scattered Clouds
4:33 PM 68.0 °F 42.8 °F 40% 29.90 in 10.0 mi Calm Calm - N/A   Scattered Clouds
4:53 PM 69.8 °F 41.0 °F 35% 29.91 in 10.0 mi NNW 3.5 mph - N/A   Clear
5:13 PM 69.8 °F 41.0 °F 35% 29.91 in 10.0 mi North 5.8 mph - N/A   Clear
5:33 PM 71.6 °F 39.2 °F 31% 29.91 in 10.0 mi Calm Calm - N/A   Scattered Clouds
5:53 PM 69.8 °F 39.2 °F 33% 29.92 in 10.0 mi Calm Calm - N/A   Scattered Clouds
6:13 PM 68.0 °F 42.8 °F 40% 29.92 in 10.0 mi Calm Calm - N/A   Clear
6:33 PM 68.0 °F 41.0 °F 37% 29.92 in 10.0 mi Calm Calm - N/A   Clear
6:53 PM 66.2 °F 42.8 °F 43% 29.93 in 10.0 mi Calm Calm - N/A   Clear
7:13 PM 66.2 °F 42.8 °F 43% 29.93 in 10.0 mi Calm Calm - N/A   Clear
7:33 PM 64.4 °F 42.8 °F 45% 29.94 in 10.0 mi Calm Calm - N/A   Scattered Clouds
7:53 PM 64.4 °F 42.8 °F 45% 29.95 in 10.0 mi NNW 4.6 mph - N/A   Scattered Clouds
8:13 PM 62.6 °F 44.6 °F 52% 29.96 in 10.0 mi Calm Calm - N/A   Clear
8:33 PM 60.8 °F 44.6 °F 55% 29.97 in 10.0 mi Calm Calm - N/A   Clear
8:53 PM 60.8 °F 44.6 °F 55% 29.97 in 10.0 mi Calm Calm - N/A   Clear
9:13 PM 59.0 °F 44.6 °F 59% 29.98 in 10.0 mi Calm Calm - N/A   Clear
9:33 PM 57.2 °F 44.6 °F 63% 29.98 in 10.0 mi Calm Calm - N/A   Clear
9:53 PM 55.4 °F 44.6 °F 67% 29.99 in 10.0 mi Calm Calm - N/A   Clear
10:13 PM 55.4 °F 44.6 °F 67% 29.99 in 10.0 mi Calm Calm - N/A   Clear
10:33 PM 55.4 °F 44.6 °F 67% 29.99 in 10.0 mi Calm Calm - N/A   Clear
10:53 PM 53.6 °F 46.4 °F 77% 30.00 in 10.0 mi Calm Calm - N/A   Clear
11:13 PM 51.8 °F 46.4 °F 82% 30.00 in 10.0 mi Calm Calm - N/A   Clear
11:33 PM 50.0 °F 44.6 °F 82% 30.01 in 10.0 mi Calm Calm - N/A   Clear
11:53 PM 48.2 °F 44.6 °F 87% 30.01 in 10.0 mi Calm Calm - N/A   Clear